Time;durP1;ratioP1;P1;durP2;ratioP2;P2;SDS_P1;SDS_P2;PMS_P1;PMS_P2;Temp;Humidity;BMP_temperature;BMP_pressure;BME280_temperature;BME280_humidity;BME280_pressure;Samples;Min_cycle;Max_cycle;Signal;HPM_P1;HPM_P2
2021/03/09 00:01:01;;;;;;;12.63;8.57;;;1.20;99.90;;;-141.85;100.00;63675.41;4996390;28;20421;-64
2021/03/09 00:03:28;;;;;;;14.13;8.10;;;1.20;99.90;;;-141.85;100.00;63675.41;4996129;28;20203;-64
2021/03/09 00:05:56;;;;;;;14.13;8.73;;;1.10;99.90;;;-141.85;100.00;63675.41;4996345;28;20203;-65
2021/03/09 00:08:23;;;;;;;12.20;8.20;;;1.00;99.90;;;-141.85;100.00;63675.41;5016128;28;20282;-66
2021/03/09 00:10:50;;;;;;;12.57;8.93;;;0.90;99.90;;;-141.85;100.00;63675.41;5015515;28;20202;-66
2021/03/09 00:13:18;;;;;;;13.77;8.97;;;0.80;99.90;;;-141.85;100.00;63675.41;5015905;28;20317;-66
2021/03/09 00:15:45;;;;;;;14.03;9.10;;;0.70;99.90;;;-141.85;100.00;63675.41;5015968;28;20297;-65
2021/03/09 00:18:13;;;;;;;18.00;12.23;;;0.80;99.90;;;-141.85;100.00;63675.41;5015802;28;20545;-65
2021/03/09 00:20:40;;;;;;;14.90;11.50;;;0.90;99.90;;;-141.85;100.00;63675.41;5015901;28;20198;-66
2021/03/09 00:23:07;;;;;;;14.33;9.70;;;0.90;99.90;;;-141.85;100.00;63675.41;5015588;28;20203;-64
2021/03/09 00:25:34;;;;;;;13.47;7.07;;;0.90;99.90;;;-141.85;100.00;63675.41;5015607;28;20240;-66
2021/03/09 00:28:01;;;;;;;9.53;7.07;;;0.80;99.90;;;-141.85;100.00;63675.41;5015663;28;20210;-66
2021/03/09 00:30:29;;;;;;;9.00;7.03;;;0.80;99.90;;;-141.85;100.00;63675.41;5015606;28;20204;-66
2021/03/09 00:32:57;;;;;;;9.93;6.23;;;0.90;99.90;;;-141.85;100.00;63675.41;5015213;28;20598;-65
2021/03/09 00:35:25;;;;;;;10.00;6.23;;;1.00;99.90;;;-141.85;100.00;63675.41;5015430;28;20632;-65
2021/03/09 00:37:52;;;;;;;8.60;6.40;;;1.00;99.90;;;-141.85;100.00;63675.41;5015421;28;20210;-65
2021/03/09 00:40:19;;;;;;;9.47;6.13;;;1.00;99.90;;;-141.85;100.00;63675.41;5015482;28;20198;-65
2021/03/09 00:42:46;;;;;;;8.60;6.10;;;1.00;99.90;;;-141.85;100.00;63675.41;5015556;28;20235;-66
2021/03/09 00:45:13;;;;;;;8.87;5.57;;;0.90;99.90;;;-141.85;100.00;63675.41;5015176;28;20916;-65
2021/03/09 00:47:58;;;;;;;7.63;6.13;;;0.90;99.90;;;-141.85;100.00;63675.41;5015283;28;20187;-65
2021/03/09 00:50:25;;;;;;;7.33;5.90;;;0.90;99.90;;;-141.85;100.00;63675.41;5015537;28;20617;-65
2021/03/09 00:52:52;;;;;;;6.70;5.33;;;0.90;99.90;;;-141.85;100.00;63675.41;5015509;28;20206;-65
2021/03/09 00:55:19;;;;;;;9.17;5.70;;;0.90;99.90;;;-141.85;100.00;63675.41;5014960;28;20262;-65
2021/03/09 00:57:55;;;;;;;9.00;6.10;;;0.90;99.90;;;-141.85;100.00;63675.41;5015131;28;20281;-66
2021/03/09 01:00:23;;;;;;;8.73;5.40;;;0.90;99.90;;;-141.85;100.00;63675.41;5014768;28;20241;-66
2021/03/09 01:02:51;;;;;;;8.67;5.80;;;0.90;99.90;;;-141.85;100.00;63675.41;5015030;28;20231;-65
2021/03/09 01:05:21;;;;;;;10.00;5.70;;;0.90;99.90;;;-141.85;100.00;63675.41;5014697;28;20662;-64
2021/03/09 01:07:48;;;;;;;8.20;6.00;;;0.90;99.90;;;-141.85;100.00;63675.41;5014784;28;20199;-65
2021/03/09 01:10:18;;;;;;;7.63;6.07;;;0.90;99.90;;;-141.85;100.00;63675.41;5014754;28;20301;-66
2021/03/09 01:12:45;;;;;;;9.23;6.27;;;1.00;99.90;;;-141.85;100.00;63675.41;5014511;28;20666;-65
2021/03/09 01:15:13;;;;;;;9.30;6.30;;;1.00;99.90;;;-141.85;100.00;63675.41;5014476;28;20262;-65
2021/03/09 01:17:40;;;;;;;10.07;6.87;;;1.00;99.90;;;-141.85;100.00;63675.41;5014830;28;20246;-65
2021/03/09 01:20:10;;;;;;;9.70;6.27;;;1.00;99.90;;;-141.85;100.00;63675.41;5014367;28;20201;-65
2021/03/09 01:22:38;;;;;;;8.93;6.43;;;1.00;99.90;;;-141.85;100.00;63675.41;5014164;28;20241;-65
2021/03/09 01:25:08;;;;;;;9.33;6.60;;;1.00;99.90;;;-141.85;100.00;63675.41;5014159;28;20226;-65
2021/03/09 01:27:36;;;;;;;10.37;6.63;;;1.00;99.90;;;-141.85;100.00;63675.41;5014935;28;20237;-66
2021/03/09 01:30:06;;;;;;;10.53;7.30;;;1.00;99.90;;;-141.85;100.00;63675.41;5014480;28;20198;-64
2021/03/09 01:32:35;;;;;;;10.30;6.73;;;1.00;99.90;;;-141.85;100.00;63675.41;5014437;28;20183;-65
2021/03/09 01:35:05;;;;;;;8.53;6.73;;;1.00;99.90;;;-141.85;100.00;63675.41;5014077;28;20330;-66
2021/03/09 01:37:32;;;;;;;10.93;6.70;;;1.00;99.90;;;-141.85;100.00;63675.41;5014618;28;20217;-65
2021/03/09 01:40:00;;;;;;;8.70;6.60;;;1.10;99.90;;;-141.85;100.00;63675.41;5013931;28;20241;-66
2021/03/09 01:42:27;;;;;;;8.73;6.30;;;1.00;99.90;;;-141.85;100.00;63675.41;5014436;28;20284;-60
2021/03/09 01:44:54;;;;;;;11.03;6.77;;;1.00;99.90;;;-141.85;100.00;63675.41;5014073;28;20768;-60
2021/03/09 01:47:22;;;;;;;8.80;6.30;;;1.00;99.90;;;-141.85;100.00;63675.41;5013832;28;20283;-60
2021/03/09 01:49:49;;;;;;;9.73;6.83;;;1.00;99.90;;;-141.85;100.00;63675.41;5013983;28;20199;-60
2021/03/09 01:52:16;;;;;;;9.20;6.80;;;1.00;99.90;;;-141.85;100.00;63675.41;5013844;28;20357;-60
2021/03/09 01:54:44;;;;;;;13.20;8.43;;;1.00;99.90;;;-141.85;100.00;63675.41;5013842;28;20296;-60
2021/03/09 01:57:12;;;;;;;10.17;6.90;;;1.00;99.90;;;-141.85;100.00;63675.41;5014096;28;20314;-60
2021/03/09 01:59:42;;;;;;;9.70;6.80;;;1.10;99.90;;;-141.85;100.00;63675.41;5013884;28;20280;-60
2021/03/09 02:02:10;;;;;;;10.47;7.10;;;1.00;99.90;;;-141.85;100.00;63675.41;5013956;28;20242;-60
2021/03/09 02:04:37;;;;;;;9.40;6.60;;;1.00;99.90;;;-141.85;100.00;63675.41;5014122;28;20211;-59
2021/03/09 02:07:05;;;;;;;9.70;6.47;;;0.90;99.90;;;-141.85;100.00;63675.41;5013944;28;20286;-60
2021/03/09 02:09:35;;;;;;;9.87;6.97;;;1.10;99.90;;;-141.85;100.00;63675.41;5013705;28;20237;-60
2021/03/09 02:12:19;;;;;;;8.27;6.90;;;1.20;99.90;;;-141.85;100.00;63675.41;5013933;28;20298;-60
2021/03/09 02:15:02;;;;;;;9.07;7.27;;;1.10;99.90;;;-141.85;100.00;63675.41;5013394;28;20206;-61
2021/03/09 02:17:37;;;;;;;11.00;8.33;;;1.10;99.90;;;-141.85;100.00;63675.41;5013521;28;20214;-60
2021/03/09 02:20:54;;;;;;;10.70;8.00;;;1.20;99.90;;;-141.85;100.00;63675.41;5013704;28;20182;-60
2021/03/09 02:24:18;;;;;;;10.83;7.43;;;1.30;99.90;;;-141.85;100.00;63675.41;5013190;28;20305;-60
2021/03/09 02:27:09;;;;;;;10.73;7.40;;;1.20;99.90;;;-141.85;100.00;63675.41;5013664;28;20191;-60
2021/03/09 02:30:08;;;;;;;10.37;7.57;;;1.00;99.90;;;-141.85;100.00;63675.41;5013252;28;20288;-61
2021/03/09 02:32:42;;;;;;;11.47;7.47;;;1.00;99.90;;;-141.85;100.00;63675.41;5013430;28;20215;-60
2021/03/09 02:35:16;;;;;;;9.30;7.37;;;0.90;99.90;;;-141.85;100.00;63675.41;5013107;28;20234;-60
2021/03/09 02:37:44;;;;;;;11.13;7.80;;;0.90;99.90;;;-141.85;100.00;63675.41;5013506;28;20273;-60
2021/03/09 02:40:16;;;;;;;12.13;7.87;;;0.90;99.90;;;-141.85;100.00;63675.41;5012932;28;20305;-59
2021/03/09 02:42:50;;;;;;;10.57;7.90;;;0.90;99.90;;;-141.85;100.00;63675.41;5013335;28;20641;-60
2021/03/09 02:45:23;;;;;;;11.40;7.30;;;0.90;99.90;;;-141.85;100.00;63675.41;5013119;28;20222;-60
2021/03/09 02:47:52;;;;;;;9.57;7.60;;;0.90;99.90;;;-141.85;100.00;63675.41;5013256;28;20282;-61
2021/03/09 02:50:24;;;;;;;12.30;7.70;;;0.90;99.90;;;-141.85;100.00;63675.41;5013394;28;20199;-61
2021/03/09 02:52:57;;;;;;;12.63;8.27;;;0.90;99.90;;;-141.85;100.00;63675.41;5013016;28;20616;-60
2021/03/09 02:55:26;;;;;;;12.53;7.93;;;0.80;99.90;;;-141.85;100.00;63675.41;5013192;28;20313;-59
2021/03/09 02:57:56;;;;;;;11.73;7.07;;;0.90;99.90;;;-141.85;100.00;63675.41;5012938;28;20199;-59
2021/03/09 03:00:25;;;;;;;11.57;7.70;;;0.80;99.90;;;-141.85;100.00;63675.41;5013018;28;20209;-60
2021/03/09 03:02:53;;;;;;;9.70;7.73;;;0.90;99.90;;;-141.85;100.00;63675.41;5012877;28;20271;-61
2021/03/09 03:05:21;;;;;;;9.63;7.13;;;0.80;99.90;;;-141.85;100.00;63675.41;5012247;28;20198;-60
2021/03/09 03:07:49;;;;;;;10.87;7.20;;;0.90;99.90;;;-141.85;100.00;63675.41;5012854;28;20644;-59
2021/03/09 03:10:20;;;;;;;9.33;7.07;;;0.90;99.90;;;-141.85;100.00;63675.41;5012812;28;20257;-60
2021/03/09 03:12:49;;;;;;;10.47;7.47;;;0.90;99.90;;;-141.85;100.00;63675.41;5012791;28;20656;-60
2021/03/09 03:15:20;;;;;;;10.27;7.70;;;0.90;99.90;;;-141.85;100.00;63675.41;5013014;28;20244;-59
2021/03/09 03:17:50;;;;;;;11.13;7.80;;;0.80;99.90;;;-141.85;100.00;63675.41;5012909;28;20277;-60
2021/03/09 03:20:21;;;;;;;11.23;7.90;;;0.80;99.90;;;-141.85;100.00;63675.41;5012708;28;20714;-60
2021/03/09 03:22:52;;;;;;;11.27;7.90;;;0.80;99.90;;;-141.85;100.00;63675.41;5012793;28;20183;-61
2021/03/09 03:25:19;;;;;;;10.20;7.93;;;0.80;99.90;;;-141.85;100.00;63675.41;5012931;28;20214;-60
2021/03/09 03:27:49;;;;;;;10.57;7.83;;;0.80;99.90;;;-141.85;100.00;63675.41;5012899;28;20229;-60
2021/03/09 03:30:17;;;;;;;12.97;8.73;;;0.70;99.90;;;-141.85;100.00;63675.41;5012801;28;20286;-60
2021/03/09 03:32:46;;;;;;;11.17;8.40;;;0.70;99.90;;;-141.85;100.00;63675.41;5012371;28;20674;-60
2021/03/09 03:35:16;;;;;;;11.87;8.37;;;0.70;99.90;;;-141.85;100.00;63675.41;5012167;28;20262;-59
2021/03/09 03:37:45;;;;;;;10.93;8.00;;;0.70;99.90;;;-141.85;100.00;63675.41;5012077;28;20755;-61
2021/03/09 03:40:16;;;;;;;10.53;8.17;;;0.70;99.90;;;-141.85;100.00;63675.41;5012739;28;20205;-59
2021/03/09 03:42:45;;;;;;;12.73;8.43;;;0.70;99.90;;;-141.85;100.00;63675.41;5012555;28;20191;-60
2021/03/09 03:45:17;;;;;;;10.77;7.93;;;0.70;99.90;;;-141.85;100.00;63675.41;5012281;28;20207;-59
2021/03/09 03:47:45;;;;;;;11.80;8.57;;;0.60;99.90;;;-141.85;100.00;63675.41;5012545;28;20230;-60
2021/03/09 03:50:17;;;;;;;12.67;8.63;;;0.70;99.90;;;-141.85;100.00;63675.41;5013821;28;20393;-60
2021/03/09 03:52:54;;;;;;;13.37;8.93;;;0.60;99.90;;;-141.85;100.00;63675.41;5014733;28;20269;-60
2021/03/09 03:55:38;;;;;;;13.20;8.97;;;0.60;99.90;;;-141.85;100.00;63675.41;5013501;28;20678;-61
2021/03/09 03:58:16;;;;;;;12.93;8.37;;;0.60;99.90;;;-141.85;100.00;63675.41;5012482;28;20214;-61
2021/03/09 04:00:45;;;;;;;11.53;8.37;;;0.70;99.90;;;-141.85;100.00;63675.41;5012574;28;20183;-59
2021/03/09 04:03:15;;;;;;;11.10;8.20;;;0.70;99.90;;;-141.85;100.00;63675.41;5012636;28;20245;-61
2021/03/09 04:05:49;;;;;;;9.30;8.00;;;0.70;99.90;;;-141.85;100.00;63675.41;5012211;28;20293;-60
2021/03/09 04:08:17;;;;;;;13.07;9.03;;;0.70;99.90;;;-141.85;100.00;63675.41;5011916;28;20218;-60
2021/03/09 04:10:49;;;;;;;9.70;7.70;;;0.70;99.90;;;-141.85;100.00;63675.41;5012410;28;20222;-60
2021/03/09 04:13:18;;;;;;;12.37;8.40;;;0.60;99.90;;;-141.85;100.00;63675.41;5011940;28;20714;-60
2021/03/09 04:15:47;;;;;;;11.67;8.07;;;0.60;99.90;;;-141.85;100.00;63675.41;5013379;28;20321;-61
2021/03/09 04:18:17;;;;;;;11.83;8.40;;;0.50;99.90;;;-141.85;100.00;63675.41;5015837;28;20199;-60
2021/03/09 04:20:47;;;;;;;11.27;8.10;;;0.50;99.90;;;-141.85;100.00;63675.41;5015675;28;20190;-62
2021/03/09 04:23:15;;;;;;;11.33;8.57;;;0.50;99.90;;;-141.85;100.00;63675.41;5015600;28;20285;-60
2021/03/09 04:25:43;;;;;;;11.87;8.43;;;0.50;99.90;;;-141.85;100.00;63675.41;5015686;28;20290;-59
2021/03/09 04:28:11;;;;;;;11.27;8.63;;;0.40;99.90;;;-141.85;100.00;63675.41;5015790;28;20288;-59
2021/03/09 04:30:40;;;;;;;13.20;8.50;;;0.40;99.90;;;-141.85;100.00;63675.41;5015329;28;20302;-59
2021/03/09 04:33:09;;;;;;;12.97;8.37;;;0.30;99.90;;;-141.85;100.00;63675.41;5015253;28;20598;-60
2021/03/09 04:35:37;;;;;;;10.93;8.27;;;0.50;99.90;;;-141.85;100.00;63675.41;5015244;28;20225;-60
2021/03/09 04:38:05;;;;;;;12.23;8.70;;;0.40;99.90;;;-141.85;100.00;63675.41;5015015;28;20621;-60
2021/03/09 04:40:35;;;;;;;10.80;8.53;;;0.30;99.90;;;-141.85;100.00;63675.41;5015224;28;20218;-60
2021/03/09 04:43:04;;;;;;;11.13;7.80;;;0.30;99.90;;;-141.85;100.00;63675.41;5015427;28;20236;-60
2021/03/09 04:45:33;;;;;;;12.57;8.63;;;0.20;99.90;;;-141.85;100.00;63675.41;5015568;28;20234;-60
2021/03/09 04:48:02;;;;;;;10.97;8.70;;;0.20;99.90;;;-141.85;100.00;63675.41;5015020;28;20245;-60
2021/03/09 04:50:30;;;;;;;11.47;8.43;;;0.20;99.90;;;-141.85;100.00;63675.41;5015420;28;20199;-60
2021/03/09 04:52:58;;;;;;;10.93;8.93;;;0.20;99.90;;;-141.85;100.00;63675.41;5015086;28;20195;-60
2021/03/09 04:55:28;;;;;;;14.53;9.03;;;0.20;99.90;;;-141.85;100.00;63675.41;5015266;28;20230;-60
2021/03/09 04:57:55;;;;;;;11.00;8.17;;;0.20;99.90;;;-141.85;100.00;63675.41;5015152;28;20222;-59
2021/03/09 05:00:26;;;;;;;10.03;8.07;;;0.10;99.90;;;-141.85;100.00;63675.41;5014957;28;20204;-60
2021/03/09 05:02:53;;;;;;;13.27;9.00;;;0.10;99.90;;;-141.85;100.00;63675.41;5014844;28;20191;-59
2021/03/09 05:05:24;;;;;;;11.27;9.13;;;0.10;99.90;;;-141.85;100.00;63675.41;5015177;28;20207;-60
2021/03/09 05:07:52;;;;;;;12.83;8.57;;;0.10;99.90;;;-141.85;100.00;63675.41;5014687;28;20285;-59
2021/03/09 05:10:20;;;;;;;15.77;9.27;;;0.00;99.90;;;-141.85;100.00;63675.41;5015133;28;20195;-60
2021/03/09 05:12:51;;;;;;;15.00;9.60;;;0.10;99.90;;;-141.85;100.00;63675.41;5014832;28;20654;-60
2021/03/09 05:15:19;;;;;;;12.63;9.13;;;0.00;99.90;;;-141.85;100.00;63675.41;5014663;28;20666;-59
2021/03/09 05:17:46;;;;;;;15.17;9.63;;;0.00;99.90;;;-141.85;100.00;63675.41;5014748;28;20205;-60
2021/03/09 05:20:19;;;;;;;14.93;10.70;;;0.00;99.90;;;-141.85;100.00;63675.41;5014958;28;20286;-59
2021/03/09 05:22:46;;;;;;;16.07;11.57;;;0.00;99.90;;;-141.85;100.00;63675.41;5014412;28;20590;-60
2021/03/09 05:25:16;;;;;;;20.23;13.63;;;-0.10;99.90;;;-141.85;100.00;63675.41;5014826;28;20235;-59
2021/03/09 05:27:45;;;;;;;23.83;15.83;;;-0.10;99.90;;;-141.85;100.00;63675.41;5014087;28;20286;-60
2021/03/09 05:30:16;;;;;;;23.87;15.30;;;-0.10;99.90;;;-141.85;100.00;63675.41;5014619;28;20265;-61
2021/03/09 05:32:44;;;;;;;25.40;16.03;;;-0.10;99.90;;;-141.85;100.00;63675.41;5014221;28;20189;-60
2021/03/09 05:35:14;;;;;;;26.80;15.60;;;-0.10;99.90;;;-141.85;100.00;63675.41;5013942;28;20252;-60
2021/03/09 05:37:42;;;;;;;27.10;19.90;;;-0.20;99.90;;;-141.85;100.00;63675.41;5014015;28;20284;-60
2021/03/09 05:40:11;;;;;;;24.77;15.23;;;-0.20;99.90;;;-141.85;100.00;63675.41;5014248;28;20203;-60
2021/03/09 05:42:39;;;;;;;18.73;12.77;;;-0.20;99.90;;;-141.85;100.00;63675.41;5014229;28;20251;-65
2021/03/09 05:45:07;;;;;;;17.93;11.23;;;-0.30;99.90;;;-141.85;100.00;63675.41;5014164;28;20621;-65
2021/03/09 05:47:36;;;;;;;15.53;10.50;;;-0.30;99.90;;;-141.85;100.00;63675.41;5014267;28;20200;-65
2021/03/09 05:50:05;;;;;;;17.33;11.27;;;-0.30;99.90;;;-141.85;100.00;63675.41;5014267;28;20274;-65
2021/03/09 05:52:35;;;;;;;14.43;9.77;;;-0.30;99.90;;;-141.85;100.00;63675.41;5013897;28;20213;-64
2021/03/09 05:55:04;;;;;;;12.03;9.40;;;-0.20;99.90;;;-141.85;100.00;63675.41;5013897;28;20218;-65
2021/03/09 05:57:32;;;;;;;9.47;7.80;;;-0.20;99.90;;;-141.85;100.00;63675.41;5014108;28;20298;-66
2021/03/09 05:59:59;;;;;;;11.30;8.37;;;-0.20;99.90;;;-141.85;100.00;63675.41;5013865;28;20288;-65
2021/03/09 06:02:28;;;;;;;11.40;8.07;;;-0.20;99.90;;;-141.85;100.00;63675.41;5013680;28;20553;-66
2021/03/09 06:04:56;;;;;;;11.07;8.70;;;-0.20;99.90;;;-141.85;100.00;63675.41;5013830;28;20285;-66
2021/03/09 06:07:23;;;;;;;10.97;7.80;;;-0.20;99.90;;;-141.85;100.00;63675.41;5013315;28;20202;-65
2021/03/09 06:09:51;;;;;;;10.27;7.50;;;-0.10;99.90;;;-141.85;100.00;63675.41;5013663;28;20245;-65
2021/03/09 06:12:20;;;;;;;8.43;6.73;;;-0.10;99.90;;;-141.85;100.00;63675.41;5013311;28;20645;-65
2021/03/09 06:15:03;;;;;;;9.37;7.67;;;-0.10;99.90;;;-141.85;100.00;63675.41;5012985;28;20372;-65
2021/03/09 06:17:35;;;;;;;10.97;7.53;;;-0.10;99.90;;;-141.85;100.00;63675.41;5012915;28;20211;-65
2021/03/09 06:20:26;;;;;;;9.83;7.33;;;0.00;99.90;;;-141.85;100.00;63675.41;5013315;28;20183;-65
2021/03/09 06:22:56;;;;;;;9.80;7.23;;;0.00;99.90;;;-141.85;100.00;63675.41;5013321;28;20210;-64
2021/03/09 06:25:27;;;;;;;11.23;7.30;;;0.00;99.90;;;-141.85;100.00;63675.41;5013613;28;20245;-65
2021/03/09 06:28:01;;;;;;;14.50;7.80;;;0.10;99.90;;;-141.85;100.00;63675.41;5013367;28;20183;-65
2021/03/09 06:30:32;;;;;;;10.07;7.60;;;0.10;99.90;;;-141.85;100.00;63675.41;5013147;28;20187;-65
2021/03/09 06:33:00;;;;;;;11.50;7.47;;;0.10;99.90;;;-141.85;100.00;63675.41;5013291;28;20175;-66
2021/03/09 06:35:38;;;;;;;12.83;7.63;;;0.20;99.90;;;-141.85;100.00;63675.41;5004473;28;20705;-65
2021/03/09 06:38:21;;;;;;;11.40;7.70;;;0.40;99.90;;;-141.85;100.00;63675.41;5002736;28;20234;-66
2021/03/09 06:41:14;;;;;;;10.50;7.43;;;0.40;99.90;;;-141.85;100.00;63675.41;4993497;28;20230;-65
2021/03/09 06:43:44;;;;;;;9.40;7.43;;;0.60;99.90;;;-141.85;100.00;63675.41;4993567;28;20215;-65
2021/03/09 06:46:17;;;;;;;9.17;7.07;;;0.70;99.90;;;-141.85;100.00;63675.41;4996687;28;20257;-65
2021/03/09 06:48:49;;;;;;;11.83;8.03;;;0.70;99.90;;;-141.85;100.00;63675.41;5005281;28;20671;-65
2021/03/09 06:51:31;;;;;;;12.97;8.17;;;0.80;99.90;;;-141.85;100.00;63675.41;5002644;28;20221;-65
2021/03/09 06:54:01;;;;;;;12.70;8.83;;;0.90;99.90;;;-141.85;100.00;63675.41;4998966;28;20285;-65
2021/03/09 06:56:29;;;;;;;11.87;8.30;;;0.90;99.90;;;-141.85;100.00;63675.41;5003480;28;20709;-65
2021/03/09 06:59:17;;;;;;;17.10;9.67;;;1.00;99.90;;;-141.85;100.00;63675.41;5012500;28;20209;-66
2021/03/09 07:02:02;;;;;;;13.77;9.27;;;1.10;99.90;;;-141.85;100.00;63675.41;5012494;28;20627;-64
2021/03/09 07:04:29;;;;;;;14.07;8.73;;;1.30;99.90;;;-141.85;100.00;63675.41;5012784;28;20194;-65
2021/03/09 07:06:57;;;;;;;11.80;7.80;;;1.40;99.90;;;-141.85;100.00;63675.41;5012546;28;20290;-65
2021/03/09 07:09:24;;;;;;;11.27;7.97;;;1.60;99.90;;;-141.85;100.00;63675.41;5012448;28;20229;-66
2021/03/09 07:11:53;;;;;;;13.43;8.30;;;1.70;99.90;;;-141.85;100.00;63675.41;5012632;28;20705;-66
2021/03/09 07:14:23;;;;;;;13.33;7.73;;;1.90;99.90;;;-141.85;100.00;63675.41;5005741;28;20227;-66
2021/03/09 07:16:53;;;;;;;10.13;7.10;;;2.00;99.90;;;-141.85;100.00;63675.41;4999365;28;20234;-65
2021/03/09 07:19:26;;;;;;;9.57;6.73;;;2.10;99.90;;;-141.85;100.00;63675.41;4992845;28;20210;-67
2021/03/09 07:21:54;;;;;;;8.70;6.60;;;2.20;99.90;;;-141.85;100.00;63675.41;4992672;28;20234;-74
2021/03/09 07:24:23;;;;;;;11.30;6.17;;;2.30;99.90;;;-141.85;100.00;63675.41;4993103;28;20610;-68
2021/03/09 07:27:11;;;;;;;10.97;6.80;;;2.60;99.90;;;-141.85;100.00;63675.41;4992867;28;20227;-68
2021/03/09 07:29:49;;;;;;;8.97;6.43;;;2.80;99.90;;;-141.85;100.00;63675.41;4992681;28;20199;-67
2021/03/09 07:32:22;;;;;;;11.10;6.00;;;3.10;99.90;;;-141.85;100.00;63675.41;4993176;28;20286;-68
2021/03/09 07:34:50;;;;;;;7.53;5.40;;;3.10;99.90;;;-141.85;100.00;63675.41;4992640;28;20234;-67
2021/03/09 07:37:18;;;;;;;7.23;5.33;;;3.30;99.90;;;-141.85;100.00;63675.41;4992265;28;20252;-67
2021/03/09 07:39:49;;;;;;;7.80;5.67;;;3.40;99.90;;;-141.85;100.00;63675.41;4994277;28;20278;-66
2021/03/09 07:42:18;;;;;;;7.33;6.00;;;3.60;99.90;;;-141.85;100.00;63675.41;5009563;28;20510;-65
2021/03/09 07:44:48;;;;;;;6.80;5.60;;;3.70;99.90;;;-141.85;100.00;63675.41;5009244;28;20246;-66
2021/03/09 07:47:18;;;;;;;8.07;5.80;;;3.80;99.90;;;-141.85;100.00;63675.41;5009641;28;20276;-60
2021/03/09 07:49:46;;;;;;;8.77;6.20;;;3.90;99.90;;;-141.85;100.00;63675.41;5009125;28;20228;-60
2021/03/09 07:52:18;;;;;;;11.53;6.40;;;3.90;99.90;;;-141.85;100.00;63675.41;5013283;28;20202;-61
2021/03/09 07:55:18;;;;;;;9.83;6.77;;;4.10;99.90;;;-141.85;100.00;63675.41;5013497;28;20235;-60
2021/03/09 07:57:46;;;;;;;8.47;6.00;;;4.10;99.90;;;-141.85;100.00;63675.41;5013234;28;20191;-60
2021/03/09 08:00:15;;;;;;;9.02;6.82;;;4.10;99.90;;;-141.85;100.00;63675.41;5007019;28;20479;-61
2021/03/09 08:02:49;;;;;;;10.40;6.07;;;4.20;99.90;;;-141.85;100.00;63675.41;5002160;28;20210;-63
2021/03/09 08:05:19;;;;;;;11.33;6.77;;;4.30;99.90;;;-141.85;100.00;63675.41;4993457;28;20186;-64
2021/03/09 08:08:02;;;;;;;10.03;7.30;;;4.50;99.90;;;-141.85;100.00;63675.41;5008365;28;20289;-66
2021/03/09 08:10:46;;;;;;;11.43;7.07;;;4.60;99.90;;;-141.85;100.00;63675.41;5013506;28;20181;-65
2021/03/09 08:13:29;;;;;;;10.03;7.10;;;4.70;99.90;;;-141.85;100.00;63675.41;5013265;28;20216;-67
2021/03/09 08:16:32;;;;;;;12.43;7.57;;;4.80;99.90;;;-141.85;100.00;63675.41;5014042;28;20594;-65
2021/03/09 08:19:09;;;;;;;8.67;6.77;;;4.90;99.90;;;-141.85;100.00;63675.41;5013942;28;20216;-64
2021/03/09 08:21:56;;;;;;;7.37;5.17;;;4.90;99.90;;;-141.85;100.00;63675.41;5012420;28;20220;-66
2021/03/09 08:24:56;;;;;;;7.07;4.30;;;4.90;99.90;;;-141.85;100.00;63675.41;5012867;28;20243;-68
2021/03/09 08:27:39;;;;;;;5.63;4.30;;;5.00;99.90;;;-141.85;100.00;63675.41;5012455;28;20237;-66
2021/03/09 08:30:38;;;;;;;5.53;4.23;;;5.10;99.90;;;-141.85;100.00;63675.41;5012335;28;20516;-64
2021/03/09 08:33:36;;;;;;;5.97;4.80;;;5.20;99.90;;;-141.85;100.00;63675.41;5012284;28;20194;-66
2021/03/09 08:36:32;;;;;;;9.40;5.17;;;5.10;99.90;;;-141.85;100.00;63675.41;5011847;28;20241;-64
2021/03/09 08:39:13;;;;;;;7.53;4.60;;;5.30;99.90;;;-141.85;100.00;63675.41;5010811;28;20241;-65
2021/03/09 08:42:01;;;;;;;5.77;4.17;;;5.40;99.90;;;-141.85;100.00;63675.41;4993424;28;20199;-66
2021/03/09 08:44:29;;;;;;;7.23;4.63;;;5.40;99.90;;;-141.85;100.00;63675.41;4999132;28;20199;-65
2021/03/09 08:46:59;;;;;;;5.83;4.57;;;5.60;99.90;;;-141.85;100.00;63675.41;5005349;28;20242;-67
2021/03/09 08:49:47;;;;;;;7.23;4.90;;;5.60;99.90;;;-141.85;100.00;63675.41;5000717;28;20199;-66
2021/03/09 08:52:42;;;;;;;8.10;4.97;;;5.70;99.90;;;-141.85;100.00;63675.41;5011779;28;20244;-66
2021/03/09 08:55:10;;;;;;;7.03;4.80;;;5.70;99.90;;;-141.85;100.00;63675.41;5011727;28;20685;-65
2021/03/09 08:57:37;;;;;;;9.33;5.37;;;5.80;99.90;;;-141.85;100.00;63675.41;5012260;28;20244;-66
2021/03/09 09:00:11;;;;;;;5.97;4.80;;;5.70;99.90;;;-141.85;100.00;63675.41;5005391;28;20239;-67
2021/03/09 09:02:42;;;;;;;6.13;4.83;;;5.80;99.90;;;-141.85;100.00;63675.41;4991016;28;20190;-63
2021/03/09 09:05:12;;;;;;;5.87;4.37;;;5.70;99.90;;;-141.85;100.00;63675.41;4992103;28;20218;-65
2021/03/09 09:07:41;;;;;;;6.30;4.63;;;5.90;99.90;;;-141.85;100.00;63675.41;5006369;28;20207;-59
2021/03/09 09:10:12;;;;;;;6.13;4.77;;;5.90;99.90;;;-141.85;100.00;63675.41;5011816;28;20202;-63
2021/03/09 09:12:41;;;;;;;7.50;4.90;;;5.90;99.90;;;-141.85;100.00;63675.41;5011474;28;20642;-64
2021/03/09 09:15:21;;;;;;;6.20;4.90;;;5.80;99.90;;;-141.85;100.00;63675.41;5011400;28;20234;-61
2021/03/09 09:17:53;;;;;;;6.20;5.00;;;5.80;99.90;;;-141.85;100.00;63675.41;5011309;28;20798;-61
2021/03/09 09:20:29;;;;;;;6.27;5.10;;;5.90;99.90;;;-141.85;100.00;63675.41;5011549;28;20292;-61
2021/03/09 09:23:06;;;;;;;7.07;5.30;;;5.90;99.90;;;-141.85;100.00;63675.41;5011571;28;20183;-71
2021/03/09 09:25:39;;;;;;;7.43;5.23;;;6.00;99.90;;;-141.85;100.00;63675.41;5011829;28;20275;-69
2021/03/09 09:28:07;;;;;;;6.60;5.37;;;5.90;99.90;;;-141.85;100.00;63675.41;5011568;28;20600;-59
2021/03/09 09:30:39;;;;;;;9.20;5.07;;;6.00;99.90;;;-141.85;100.00;63675.41;5011680;28;20554;-61
2021/03/09 09:33:11;;;;;;;6.80;5.00;;;6.10;99.90;;;-141.85;100.00;63675.41;5011060;28;20757;-67
2021/03/09 09:35:40;;;;;;;7.57;5.63;;;6.00;99.90;;;-141.85;100.00;63675.41;5010855;28;20237;-62
2021/03/09 09:38:10;;;;;;;6.50;4.63;;;6.00;99.90;;;-141.85;100.00;63675.41;5011089;28;20206;-61
2021/03/09 09:40:40;;;;;;;6.33;4.80;;;6.00;99.90;;;-141.85;100.00;63675.41;5011208;28;20190;-62
2021/03/09 09:43:11;;;;;;;9.10;5.67;;;6.10;99.90;;;-141.85;100.00;63675.41;5011144;28;20287;-62
2021/03/09 09:45:44;;;;;;;7.73;5.07;;;6.30;99.90;;;-141.85;100.00;63675.41;5011161;28;20279;-63
2021/03/09 09:48:15;;;;;;;6.33;4.97;;;6.30;99.90;;;-141.85;100.00;63675.41;5010843;28;20651;-62
2021/03/09 09:50:47;;;;;;;7.97;5.23;;;6.40;99.90;;;-141.85;100.00;63675.41;5010250;28;20186;-64
2021/03/09 09:53:28;;;;;;;6.47;5.27;;;6.40;99.90;;;-141.85;100.00;63675.41;5011034;28;20625;-59
2021/03/09 09:55:56;;;;;;;7.47;5.00;;;6.50;99.90;;;-141.85;100.00;63675.41;5010544;28;20755;-58
2021/03/09 09:58:43;;;;;;;6.60;4.90;;;6.50;99.90;;;-141.85;100.00;63675.41;5010750;28;20238;-58
2021/03/09 10:01:12;;;;;;;8.10;5.43;;;6.40;99.90;;;-141.85;100.00;63675.41;5010375;28;20214;-70
2021/03/09 10:03:54;;;;;;;6.90;5.10;;;6.40;99.90;;;-141.85;100.00;63675.41;5010639;28;20199;-64
2021/03/09 10:06:23;;;;;;;8.03;5.50;;;6.50;99.90;;;-141.85;100.00;63675.41;5010823;28;20289;-60
2021/03/09 10:08:51;;;;;;;9.20;5.50;;;6.50;99.90;;;-141.85;100.00;63675.41;5010675;28;20203;-64
2021/03/09 10:11:19;;;;;;;7.23;5.90;;;6.60;99.90;;;-141.85;100.00;63675.41;5010591;28;20647;-61
2021/03/09 10:13:46;;;;;;;7.53;5.47;;;6.70;99.90;;;-141.85;100.00;63675.41;5010069;28;20256;-61
2021/03/09 10:16:15;;;;;;;8.17;6.40;;;6.90;99.90;;;-141.85;100.00;63675.41;5010354;28;20226;-64
2021/03/09 10:18:42;;;;;;;8.73;6.23;;;7.00;99.90;;;-141.85;100.00;63675.41;5009490;28;20210;-73
2021/03/09 10:21:14;;;;;;;9.00;6.53;;;7.10;99.90;;;-141.85;100.00;63675.41;5010322;28;20207;-62